Time;durP1;ratioP1;P1;durP2;ratioP2;P2;SDS_P1;SDS_P2;PMS_P1;PMS_P2;Temp;Humidity;BMP_temperature;BMP_pressure;BME280_temperature;BME280_humidity;BME280_pressure;Samples;Min_cycle;Max_cycle;Signal;HPM_P1;HPM_P2
2021/03/27 00:00:24;;;;;;;1.10;0.80;;;8.00;99.90;;;;;;4943067;29;20229;-81
2021/03/27 00:03:22;;;;;;;2.47;1.50;;;7.90;99.90;;;;;;4944647;29;20223;-81
2021/03/27 00:06:12;;;;;;;2.13;1.10;;;7.80;99.90;;;;;;4943340;29;20206;-81
2021/03/27 00:09:06;;;;;;;2.60;1.00;;;7.70;99.90;;;;;;4941379;29;20203;-81
2021/03/27 00:11:56;;;;;;;1.20;1.00;;;7.70;99.90;;;;;;4947707;29;20226;-81
2021/03/27 00:14:47;;;;;;;2.40;1.10;;;7.60;99.90;;;;;;4944227;29;20282;-80
2021/03/27 00:17:41;;;;;;;2.57;1.20;;;7.50;99.90;;;;;;4941632;29;20210;-81
2021/03/27 00:20:34;;;;;;;2.27;1.23;;;7.50;99.90;;;;;;4958710;29;20285;-80
2021/03/27 00:23:24;;;;;;;2.17;1.30;;;7.40;99.90;;;;;;4951675;29;20203;-81
2021/03/27 00:26:13;;;;;;;4.07;1.70;;;7.30;99.90;;;;;;4961610;29;20217;-81
2021/03/27 00:29:07;;;;;;;2.70;1.70;;;7.30;99.90;;;;;;4955286;29;20242;-80
2021/03/27 00:31:58;;;;;;;1.43;1.30;;;7.30;99.90;;;;;;4943159;29;20306;-80
2021/03/27 00:34:52;;;;;;;1.73;1.40;;;7.20;99.90;;;;;;4950596;29;20218;-81
2021/03/27 00:37:40;;;;;;;4.63;1.93;;;7.20;99.90;;;;;;4946366;29;20202;-80
2021/03/27 00:40:27;;;;;;;3.07;2.37;;;7.20;99.90;;;;;;4956838;28;20206;-81
2021/03/27 00:43:20;;;;;;;3.97;2.30;;;7.10;99.90;;;;;;4967338;28;20191;-81
2021/03/27 00:46:08;;;;;;;6.30;2.93;;;7.10;99.90;;;;;;4961087;28;20195;-80
2021/03/27 00:48:59;;;;;;;3.83;2.80;;;7.10;99.90;;;;;;4960420;28;20221;-81
2021/03/27 00:51:50;;;;;;;4.03;2.43;;;7.10;99.90;;;;;;4941788;29;20852;-80
2021/03/27 00:54:41;;;;;;;8.37;4.07;;;7.00;99.90;;;;;;4937817;29;20282;-81
2021/03/27 00:57:28;;;;;;;5.90;3.10;;;7.00;99.90;;;;;;4944563;29;20207;-80
2021/03/27 01:00:19;;;;;;;7.73;4.60;;;7.00;99.90;;;;;;4945437;29;20210;-80
2021/03/27 01:03:10;;;;;;;7.60;4.83;;;7.00;99.90;;;;;;4945255;29;20221;-80
2021/03/27 01:05:55;;;;;;;8.63;5.37;;;7.00;99.90;;;;;;4943950;29;20199;-80
2021/03/27 01:08:42;;;;;;;6.57;4.30;;;7.00;99.90;;;;;;4946008;29;20289;-80
2021/03/27 01:11:32;;;;;;;8.70;5.00;;;6.90;99.90;;;;;;4940666;29;20225;-81
2021/03/27 01:14:20;;;;;;;9.37;5.37;;;6.90;99.90;;;;;;4939765;29;20206;-80
2021/03/27 01:17:08;;;;;;;8.83;5.57;;;6.90;99.90;;;;;;4936714;29;20226;-81
2021/03/27 01:19:58;;;;;;;9.77;6.10;;;6.80;99.90;;;;;;4938672;29;20265;-81
2021/03/27 01:22:46;;;;;;;9.80;5.90;;;6.90;99.90;;;;;;4943794;29;20210;-81
2021/03/27 01:25:33;;;;;;;11.07;7.03;;;6.90;99.90;;;;;;4943788;29;20214;-81
2021/03/27 01:28:31;;;;;;;12.37;5.20;;;6.80;99.90;;;;;;4943142;29;20294;-80
2021/03/27 01:31:20;;;;;;;12.77;6.07;;;6.80;99.90;;;;;;4938418;29;20223;-81
2021/03/27 01:34:13;;;;;;;10.40;6.07;;;6.80;99.90;;;;;;4935878;29;20217;-81
2021/03/27 01:37:11;;;;;;;13.40;8.70;;;6.80;99.90;;;;;;4940361;29;20207;-80
2021/03/27 01:40:04;;;;;;;16.47;8.80;;;6.80;99.90;;;;;;4936308;29;20213;-80
2021/03/27 01:42:59;;;;;;;20.83;11.23;;;6.80;99.90;;;;;;4941075;29;20214;-79
2021/03/27 01:46:14;;;;;;;18.13;9.73;;;6.70;99.90;;;;;;4936494;29;20262;-79
2021/03/27 01:49:08;;;;;;;14.10;8.80;;;6.70;99.90;;;;;;4941224;29;20267;-79
2021/03/27 01:52:09;;;;;;;18.97;10.60;;;6.70;99.90;;;;;;4943576;28;20265;-79
2021/03/27 01:55:07;;;;;;;19.27;11.23;;;6.70;99.90;;;;;;4938724;29;20296;-79
2021/03/27 01:57:59;;;;;;;18.93;10.67;;;6.70;99.90;;;;;;4938985;29;20283;-78
2021/03/27 02:00:49;;;;;;;19.40;12.30;;;6.60;99.90;;;;;;4941421;29;20306;-80
2021/03/27 02:03:40;;;;;;;18.93;11.80;;;6.70;99.90;;;;;;4942689;29;20215;-80
2021/03/27 02:06:34;;;;;;;19.80;11.50;;;6.70;99.90;;;;;;4934074;29;20224;-80
2021/03/27 02:09:27;;;;;;;14.03;7.90;;;6.70;99.90;;;;;;4939690;29;20215;-80
2021/03/27 02:12:21;;;;;;;18.07;8.87;;;6.70;99.90;;;;;;4936728;29;20254;-79
2021/03/27 02:15:12;;;;;;;16.77;10.93;;;6.70;99.90;;;;;;4941009;29;20566;-79
2021/03/27 02:18:02;;;;;;;17.00;10.13;;;6.70;99.90;;;;;;4941530;29;20232;-79
2021/03/27 02:21:00;;;;;;;15.70;11.50;;;6.70;99.90;;;;;;4941133;29;20281;-80
2021/03/27 02:24:08;;;;;;;16.00;11.07;;;6.70;99.90;;;;;;4943719;29;20695;-79
2021/03/27 02:27:06;;;;;;;17.27;10.30;;;6.70;99.90;;;;;;4939371;29;20226;-79
2021/03/27 02:30:12;;;;;;;18.00;9.63;;;6.70;99.90;;;;;;4937172;29;20211;-80
2021/03/27 02:33:10;;;;;;;16.03;10.00;;;6.70;99.90;;;;;;4935768;29;20279;-79
2021/03/27 02:36:28;;;;;;;17.67;9.63;;;6.70;99.90;;;;;;4936900;29;20287;-79
2021/03/27 02:39:19;;;;;;;14.07;9.20;;;6.60;99.90;;;;;;4934947;29;20230;-80
2021/03/27 02:42:12;;;;;;;14.40;7.33;;;6.60;99.90;;;;;;4936339;29;20219;-80
2021/03/27 02:45:08;;;;;;;15.47;7.83;;;6.50;99.90;;;;;;4939465;29;20751;-79
2021/03/27 02:48:05;;;;;;;14.97;9.03;;;6.50;99.90;;;;;;4938717;29;20688;-80
2021/03/27 02:51:10;;;;;;;17.50;7.93;;;6.50;99.90;;;;;;4941030;29;20601;-80
2021/03/27 02:54:08;;;;;;;14.63;8.27;;;6.40;99.90;;;;;;4932993;29;20362;-80
2021/03/27 02:56:57;;;;;;;18.57;8.93;;;6.40;99.90;;;;;;4936327;29;20681;-79
2021/03/27 02:59:50;;;;;;;15.97;8.73;;;6.40;99.90;;;;;;4936277;29;20203;-78
2021/03/27 03:02:47;;;;;;;17.80;8.73;;;6.30;99.90;;;;;;4935412;29;20737;-79
2021/03/27 03:05:39;;;;;;;13.27;6.23;;;6.30;99.90;;;;;;4946126;29;20218;-80
2021/03/27 03:08:29;;;;;;;16.77;9.47;;;6.30;99.90;;;;;;4936115;29;20203;-80
2021/03/27 03:11:21;;;;;;;15.40;8.43;;;6.20;99.90;;;;;;4948989;29;20203;-78
2021/03/27 03:14:14;;;;;;;19.30;11.57;;;6.20;99.90;;;;;;4958539;29;20251;-79
2021/03/27 03:17:13;;;;;;;21.20;10.10;;;6.20;99.90;;;;;;4948853;29;20206;-80
2021/03/27 03:20:05;;;;;;;18.47;10.47;;;6.20;99.90;;;;;;4941987;29;20239;-80
2021/03/27 03:22:57;;;;;;;16.27;9.60;;;6.20;99.90;;;;;;4937538;29;20205;-80
2021/03/27 03:25:50;;;;;;;26.73;10.70;;;6.10;99.90;;;;;;4934623;29;20223;-80
2021/03/27 03:28:49;;;;;;;22.17;10.40;;;6.10;99.90;;;;;;4936756;29;20218;-80
2021/03/27 03:31:41;;;;;;;21.63;10.83;;;6.10;99.90;;;;;;4940793;29;20231;-79
2021/03/27 03:34:45;;;;;;;18.33;10.57;;;6.10;99.90;;;;;;4939890;29;20300;-80
2021/03/27 03:37:51;;;;;;;12.73;7.40;;;6.10;99.90;;;;;;4932759;29;20732;-79
2021/03/27 03:40:50;;;;;;;18.97;8.53;;;6.10;99.90;;;;;;4930976;29;20234;-79
2021/03/27 03:43:47;;;;;;;29.10;10.80;;;6.10;99.90;;;;;;4931798;29;20695;-79
2021/03/27 03:46:40;;;;;;;20.10;10.17;;;6.20;99.90;;;;;;4934321;29;20706;-79
2021/03/27 03:49:56;;;;;;;23.07;10.87;;;6.20;99.90;;;;;;4933749;29;20206;-79
2021/03/27 03:52:57;;;;;;;23.43;12.03;;;6.20;99.90;;;;;;4930895;28;20229;-79
2021/03/27 03:55:57;;;;;;;17.27;9.37;;;6.20;99.90;;;;;;4937840;29;20251;-79
2021/03/27 03:58:56;;;;;;;18.07;10.33;;;6.20;99.90;;;;;;4935818;29;20222;-79
2021/03/27 04:01:48;;;;;;;18.93;9.63;;;6.20;99.90;;;;;;4939339;29;20307;-79
2021/03/27 04:04:42;;;;;;;17.97;8.97;;;6.20;99.90;;;;;;4936507;29;20242;-78
2021/03/27 04:07:31;;;;;;;21.57;9.10;;;6.20;99.90;;;;;;4936807;29;20210;-79
2021/03/27 04:10:18;;;;;;;19.60;8.73;;;6.20;99.90;;;;;;4934476;29;20203;-79
2021/03/27 04:13:09;;;;;;;17.40;8.60;;;6.30;99.90;;;;;;4932222;29;20238;-79
2021/03/27 04:15:57;;;;;;;16.53;8.17;;;6.30;99.90;;;;;;4939515;29;20239;-79
2021/03/27 04:18:44;;;;;;;20.90;9.97;;;6.30;99.90;;;;;;4934188;29;20207;-79
2021/03/27 04:21:34;;;;;;;15.53;6.70;;;6.30;99.90;;;;;;4944268;29;20309;-79
2021/03/27 04:24:25;;;;;;;18.07;6.93;;;6.30;99.90;;;;;;4941921;29;20707;-78
2021/03/27 04:27:26;;;;;;;15.43;7.03;;;6.30;99.90;;;;;;4938416;29;20207;-79
2021/03/27 04:30:26;;;;;;;18.37;7.27;;;6.30;99.90;;;;;;4937919;29;20629;-79
2021/03/27 04:33:16;;;;;;;15.10;6.80;;;6.30;99.90;;;;;;4939821;29;20311;-78
2021/03/27 04:36:07;;;;;;;14.40;6.90;;;6.30;99.90;;;;;;4940626;29;20629;-79
2021/03/27 04:38:58;;;;;;;14.43;6.07;;;6.40;99.90;;;;;;4938800;29;20218;-79
2021/03/27 04:41:52;;;;;;;18.03;5.73;;;6.40;99.90;;;;;;4935627;29;20271;-79
2021/03/27 04:44:46;;;;;;;15.07;6.87;;;6.40;99.90;;;;;;4942195;29;20258;-79
2021/03/27 04:47:38;;;;;;;18.77;6.00;;;6.40;99.90;;;;;;4941314;29;20735;-79
2021/03/27 04:50:28;;;;;;;14.67;5.47;;;6.40;99.90;;;;;;4935003;29;20298;-79
2021/03/27 04:53:20;;;;;;;21.43;6.63;;;6.40;99.90;;;;;;4940504;29;20252;-79
2021/03/27 04:56:15;;;;;;;13.93;5.23;;;6.40;99.90;;;;;;4940253;29;20637;-78
2021/03/27 04:59:10;;;;;;;15.53;5.37;;;6.50;99.90;;;;;;4938139;29;20255;-79
2021/03/27 05:02:02;;;;;;;16.23;5.53;;;6.50;99.90;;;;;;4942429;29;20239;-79
2021/03/27 05:04:58;;;;;;;13.07;5.63;;;6.40;99.90;;;;;;4939022;29;20235;-79
2021/03/27 05:07:55;;;;;;;15.13;6.10;;;6.50;99.90;;;;;;4941187;29;20241;-78
2021/03/27 05:10:43;;;;;;;16.80;4.73;;;6.50;99.90;;;;;;4940178;29;20246;-78
2021/03/27 05:13:38;;;;;;;15.63;4.73;;;6.50;99.90;;;;;;4925586;29;20203;-80
2021/03/27 05:16:27;;;;;;;13.77;4.57;;;6.50;99.90;;;;;;4939340;29;20207;-79
2021/03/27 05:19:18;;;;;;;13.40;4.57;;;6.50;99.90;;;;;;4929043;29;20207;-79
2021/03/27 05:22:15;;;;;;;13.70;4.27;;;6.50;99.90;;;;;;4937907;29;20315;-79
2021/03/27 05:25:14;;;;;;;11.33;4.63;;;6.60;99.90;;;;;;4935022;29;20208;-79
2021/03/27 05:28:13;;;;;;;12.67;4.83;;;6.50;99.90;;;;;;4937479;29;20261;-79
2021/03/27 05:31:09;;;;;;;12.83;4.03;;;6.50;99.90;;;;;;4933907;29;20264;-79
2021/03/27 05:34:06;;;;;;;11.60;4.27;;;6.50;99.90;;;;;;4931197;29;20219;-79
2021/03/27 05:37:26;;;;;;;14.60;4.83;;;6.50;99.90;;;;;;4931607;29;20211;-79
2021/03/27 05:40:42;;;;;;;14.17;4.73;;;6.50;99.90;;;;;;4931234;29;20227;-79
2021/03/27 05:43:58;;;;;;;16.33;4.57;;;6.50;99.90;;;;;;4931609;29;20300;-79
2021/03/27 05:47:13;;;;;;;11.47;4.60;;;6.40;99.90;;;;;;4929122;29;20291;-80
2021/03/27 05:50:30;;;;;;;11.87;5.77;;;6.40;99.90;;;;;;4934883;29;20207;-79
2021/03/27 05:54:00;;;;;;;18.17;5.90;;;6.40;99.90;;;;;;4934032;28;20351;-79
2021/03/27 05:57:32;;;;;;;18.17;5.63;;;6.40;99.90;;;;;;4929962;29;20222;-79
2021/03/27 06:00:33;;;;;;;9.00;3.73;;;6.40;99.90;;;;;;4893516;29;20665;-80
2021/03/27 06:03:33;;;;;;;21.87;6.30;;;6.40;99.90;;;;;;4935917;29;20230;-80
2021/03/27 06:06:49;;;;;;;17.50;5.70;;;6.40;99.90;;;;;;4958959;29;20192;-80
2021/03/27 06:09:41;;;;;;;17.77;5.17;;;6.40;99.90;;;;;;4948982;29;20222;-79
2021/03/27 06:12:41;;;;;;;9.57;2.47;;;6.40;99.90;;;;;;4942850;29;20222;-79
2021/03/27 06:15:49;;;;;;;6.27;2.23;;;6.40;99.90;;;;;;4934968;29;20206;-79
2021/03/27 06:19:11;;;;;;;8.77;2.57;;;6.40;99.90;;;;;;4934263;29;20279;-80
2021/03/27 06:22:17;;;;;;;4.97;2.03;;;6.30;99.90;;;;;;4934590;29;20255;-79
2021/03/27 06:25:28;;;;;;;7.73;2.30;;;6.10;99.90;;;;;;4935546;29;20302;-79
2021/03/27 06:28:34;;;;;;;10.83;2.57;;;6.00;99.90;;;;;;4934908;29;20302;-80
2021/03/27 06:31:30;;;;;;;6.67;2.90;;;6.00;99.90;;;;;;4935634;29;20232;-80
2021/03/27 06:34:51;;;;;;;7.63;2.10;;;5.90;99.90;;;;;;4936682;29;20311;-79
2021/03/27 06:38:06;;;;;;;6.40;2.30;;;5.80;99.90;;;;;;4935963;28;20235;-79
2021/03/27 06:41:08;;;;;;;6.10;2.30;;;5.80;99.90;;;;;;4946971;29;20316;-79
2021/03/27 06:44:15;;;;;;;5.93;1.77;;;5.90;99.90;;;;;;4927058;29;20214;-77
2021/03/27 06:47:35;;;;;;;7.17;2.60;;;5.70;99.90;;;;;;4920317;29;20283;-78
2021/03/27 06:50:43;;;;;;;6.10;2.70;;;5.60;99.90;;;;;;4926672;29;20270;-78
2021/03/27 06:53:51;;;;;;;7.93;2.33;;;5.60;99.90;;;;;;4938139;29;20217;-80
2021/03/27 06:56:45;;;;;;;9.23;2.93;;;5.50;99.90;;;;;;4936162;29;20203;-78
2021/03/27 07:00:30;;;;;;;5.20;2.40;;;5.50;99.90;;;;;;4944999;29;20205;-79
2021/03/27 07:03:54;;;;;;;5.27;2.00;;;5.50;99.90;;;;;;4948602;29;20223;-80
2021/03/27 07:07:04;;;;;;;5.53;2.07;;;5.50;99.90;;;;;;4934398;29;20225;-79
2021/03/27 07:10:12;;;;;;;8.30;2.57;;;5.40;99.90;;;;;;4947268;28;20235;-79
2021/03/27 07:13:24;;;;;;;4.60;1.57;;;5.40;99.90;;;;;;4929842;29;21047;-79
2021/03/27 07:16:29;;;;;;;10.70;2.50;;;5.30;99.90;;;;;;4908660;29;20234;-79
2021/03/27 07:19:47;;;;;;;11.23;2.80;;;5.30;99.90;;;;;;4925368;29;20299;-79
2021/03/27 07:23:02;;;;;;;9.30;2.60;;;5.30;99.90;;;;;;4927017;29;20328;-79
2021/03/27 07:25:56;;;;;;;11.43;2.53;;;5.30;99.90;;;;;;4934249;29;20711;-78
2021/03/27 07:28:52;;;;;;;10.30;3.00;;;5.30;99.90;;;;;;4938267;29;20295;-79
2021/03/27 07:31:50;;;;;;;7.43;2.73;;;5.30;99.90;;;;;;4928043;29;20348;-79
2021/03/27 07:34:55;;;;;;;7.50;2.53;;;5.30;99.90;;;;;;4927085;29;20299;-78
2021/03/27 07:37:58;;;;;;;10.10;3.27;;;5.30;99.90;;;;;;4931754;29;20319;-77
2021/03/27 07:40:54;;;;;;;14.87;3.20;;;5.30;99.90;;;;;;4930508;29;20230;-78
2021/03/27 07:44:29;;;;;;;9.10;3.17;;;5.40;99.90;;;;;;4934082;29;20400;-78
2021/03/27 07:47:34;;;;;;;10.27;2.63;;;5.50;99.90;;;;;;4875340;29;20217;-78
2021/03/27 07:50:43;;;;;;;11.00;2.87;;;5.60;99.90;;;;;;4931678;29;20783;-79
2021/03/27 07:54:13;;;;;;;10.13;2.40;;;5.70;99.90;;;;;;4935647;29;20257;-79
2021/03/27 07:57:15;;;;;;;10.53;3.60;;;5.90;99.90;;;;;;4889242;29;20673;-78
2021/03/27 08:00:29;;;;;;;7.77;1.87;;;6.00;99.90;;;;;;4935024;29;20655;-77
2021/03/27 08:03:52;;;;;;;13.13;2.87;;;6.20;99.90;;;;;;4934091;29;20206;-78
2021/03/27 08:06:49;;;;;;;9.07;2.30;;;6.40;99.90;;;;;;4935109;29;20214;-78
2021/03/27 08:10:12;;;;;;;8.50;2.73;;;6.50;99.90;;;;;;4932605;29;20250;-78
2021/03/27 08:13:22;;;;;;;11.73;2.67;;;6.60;99.90;;;;;;4933005;29;20768;-79
2021/03/27 08:16:38;;;;;;;14.10;2.87;;;6.60;99.90;;;;;;4933127;29;20253;-78
2021/03/27 08:19:56;;;;;;;14.23;2.73;;;6.70;99.90;;;;;;4922283;29;20215;-79
2021/03/27 08:23:10;;;;;;;6.20;2.10;;;6.70;99.90;;;;;;4930636;29;20294;-79
2021/03/27 08:26:24;;;;;;;7.30;2.00;;;6.70;99.90;;;;;;4925150;29;20222;-79
2021/03/27 08:29:47;;;;;;;11.17;2.00;;;6.60;99.90;;;;;;4932612;29;20207;-79
2021/03/27 08:32:58;;;;;;;9.73;2.23;;;6.50;99.90;;;;;;4925195;29;20227;-79
2021/03/27 08:36:20;;;;;;;7.23;1.87;;;6.20;99.90;;;;;;4926522;29;20232;-79
2021/03/27 08:39:49;;;;;;;8.40;2.10;;;6.00;99.90;;;;;;4875169;29;20249;-79
2021/03/27 08:43:12;;;;;;;8.57;2.17;;;5.80;99.90;;;;;;4929936;29;20225;-79
2021/03/27 08:46:34;;;;;;;3.50;1.50;;;5.60;99.90;;;;;;4934465;29;20242;-79
2021/03/27 08:50:04;;;;;;;5.63;1.37;;;5.50;99.90;;;;;;4919563;29;20597;-79
2021/03/27 08:53:32;;;;;;;11.53;2.30;;;5.40;99.90;;;;;;4915878;29;20241;-80
2021/03/27 08:56:43;;;;;;;10.10;1.90;;;5.40;99.90;;;;;;4906807;29;20223;-79
2021/03/27 09:00:20;;;;;;;8.83;2.07;;;5.40;99.90;;;;;;4904710;29;20256;-80
2021/03/27 09:03:54;;;;;;;7.37;1.60;;;5.40;99.90;;;;;;4926436;29;20203;-80
2021/03/27 09:06:52;;;;;;;11.20;2.57;;;5.40;99.90;;;;;;4894643;29;20204;-80
2021/03/27 09:10:00;;;;;;;12.70;2.40;;;5.40;99.90;;;;;;4935005;29;21976;-80
2021/03/27 09:13:17;;;;;;;11.30;2.20;;;5.50;99.90;;;;;;4929912;29;20230;-80
2021/03/27 09:16:45;;;;;;;9.43;2.30;;;5.70;99.90;;;;;;4930052;29;20214;-79
2021/03/27 09:19:52;;;;;;;12.23;3.03;;;5.80;99.90;;;;;;4933897;29;20286;-79
2021/03/27 09:22:50;;;;;;;14.67;2.60;;;5.90;99.90;;;;;;4931441;29;20202;-79
2021/03/27 09:26:15;;;;;;;20.80;3.60;;;6.00;99.90;;;;;;4924689;29;20227;-80
2021/03/27 09:29:49;;;;;;;16.33;3.93;;;6.00;99.90;;;;;;4927470;29;20232;-79
2021/03/27 09:32:52;;;;;;;16.53;4.13;;;6.10;99.90;;;;;;4921776;29;20319;-79
2021/03/27 09:35:56;;;;;;;10.00;2.77;;;6.20;99.90;;;;;;4918850;29;20214;-80
2021/03/27 09:38:54;;;;;;;19.53;4.10;;;6.40;99.90;;;;;;4920531;29;20232;-80
2021/03/27 09:41:56;;;;;;;17.50;4.53;;;6.70;99.90;;;;;;4937103;29;20616;-80
2021/03/27 09:45:08;;;;;;;14.97;4.30;;;7.10;99.90;;;;;;4935270;29;20858;-80
2021/03/27 09:48:34;;;;;;;11.90;2.93;;;7.60;99.90;;;;;;4938435;29;20304;-79
2021/03/27 09:51:23;;;;;;;10.03;2.60;;;8.20;99.90;;;;;;4930426;29;20238;-80
2021/03/27 09:54:15;;;;;;;8.77;3.00;;;8.70;99.90;;;;;;4927861;29;20215;-80
2021/03/27 09:57:09;;;;;;;15.07;3.63;;;9.00;99.90;;;;;;4922134;29;20295;-80
2021/03/27 10:00:11;;;;;;;10.80;3.73;;;9.20;99.90;;;;;;4940398;29;20762;-80
2021/03/27 10:03:03;;;;;;;11.73;5.23;;;9.40;99.90;;;;;;4935256;29;20242;-79
2021/03/27 10:05:53;;;;;;;15.10;5.63;;;9.40;99.90;;;;;;4939702;29;20739;-80
2021/03/27 10:08:41;;;;;;;22.07;7.97;;;9.40;99.90;;;;;;4932609;29;20302;-79
2021/03/27 10:11:31;;;;;;;10.97;3.63;;;9.50;99.90;;;;;;4931396;29;20775;-80
2021/03/27 10:14:20;;;;;;;12.10;6.37;;;9.70;99.90;;;;;;4930930;29;20619;-80
2021/03/27 10:17:15;;;;;;;9.80;4.27;;;10.20;99.90;;;;;;4937392;29;20207;-80
2021/03/27 10:20:15;;;;;;;12.97;3.97;;;10.80;99.90;;;;;;4936460;29;20239;-80
2021/03/27 10:23:04;;;;;;;13.87;2.83;;;11.50;99.90;;;;;;4936802;29;20207;-80
2021/03/27 10:26:19;;;;;;;7.27;2.70;;;12.20;99.90;;;;;;4934071;29;20232;-79
2021/03/27 10:29:36;;;;;;;8.20;2.60;;;12.70;99.90;;;;;;4940226;29;20219;-80
2021/03/27 10:33:07;;;;;;;9.57;2.47;;;12.90;99.90;;;;;;4939559;29;20252;-80
2021/03/27 10:36:34;;;;;;;7.33;2.53;;;13.00;99.90;;;;;;4939649;29;20563;-81
2021/03/27 10:39:45;;;;;;;9.20;2.43;;;12.90;99.90;;;;;;4932829;29;20208;-81
2021/03/27 10:42:59;;;;;;;9.57;2.83;;;12.70;99.90;;;;;;4932369;29;20625;-80
2021/03/27 10:45:55;;;;;;;9.53;3.53;;;12.70;99.90;;;;;;4932512;29;20279;-80
2021/03/27 10:49:05;;;;;;;8.47;3.17;;;12.70;99.90;;;;;;4937600;29;20211;-82
2021/03/27 10:52:35;;;;;;;10.07;3.33;;;12.60;99.90;;;;;;4940234;28;20367;-83
2021/03/27 10:55:51;;;;;;;10.70;2.57;;;12.70;99.90;;;;;;4944179;29;20286;-83
2021/03/27 10:58:56;;;;;;;9.10;2.70;;;12.90;99.90;;;;;;4945370;29;20219;-81
2021/03/27 11:02:05;;;;;;;5.77;2.17;;;13.10;99.90;;;;;;4936704;29;20751;-83
2021/03/27 11:05:16;;;;;;;5.90;2.00;;;13.20;99.90;;;;;;4936775;29;20273;-84
2021/03/27 11:08:41;;;;;;;6.23;2.47;;;13.30;99.90;;;;;;4930431;29;20219;-81
2021/03/27 11:12:07;;;;;;;8.63;2.10;;;13.50;99.90;;;;;;4933593;29;20317;-83
2021/03/27 11:15:16;;;;;;;9.63;2.30;;;13.70;99.90;;;;;;4941816;29;20330;-82
2021/03/27 11:18:18;;;;;;;9.57;2.17;;;14.00;99.90;;;;;;4944632;29;20216;-82
2021/03/27 11:21:15;;;;;;;9.07;2.83;;;14.30;99.90;;;;;;4948008;29;20233;-82
2021/03/27 11:24:16;;;;;;;7.23;3.03;;;14.30;99.10;;;;;;4950434;28;20206;-80
2021/03/27 11:27:39;;;;;;;9.13;3.00;;;14.30;99.90;;;;;;4946134;29;20262;-82
2021/03/27 11:30:36;;;;;;;5.87;2.30;;;14.30;97.30;;;;;;4947742;29;20224;-85
2021/03/27 11:33:30;;;;;;;8.93;2.77;;;14.30;95.30;;;;;;4934633;29;20275;-83
2021/03/27 11:36:22;;;;;;;6.87;2.47;;;14.60;95.30;;;;;;4940553;29;20566;-84
2021/03/27 11:39:18;;;;;;;6.20;3.33;;;14.80;95.10;;;;;;4947663;29;20612;-82
2021/03/27 11:42:16;;;;;;;7.17;3.50;;;14.80;97.60;;;;;;4945850;29;20247;-83
2021/03/27 11:45:09;;;;;;;8.97;2.57;;;14.70;99.60;;;;;;4940320;29;20594;-83
2021/03/27 11:48:04;;;;;;;14.43;3.50;;;14.50;99.30;;;;;;4938940;29;20210;-85
2021/03/27 11:50:56;;;;;;;9.00;3.23;;;14.30;99.10;;;;;;4934243;29;20244;-85
2021/03/27 11:54:11;;;;;;;6.70;2.87;;;14.10;98.60;;;;;;4928018;29;20282;-83
2021/03/27 11:57:30;;;;;;;9.17;2.60;;;14.10;96.50;;;;;;4933457;29;20264;-84
2021/03/27 12:00:48;;;;;;;8.07;3.20;;;14.10;95.80;;;;;;4928547;29;20294;-85
2021/03/27 12:03:50;;;;;;;9.43;2.60;;;14.20;96.80;;;;;;4936273;29;20248;-85
2021/03/27 12:06:39;;;;;;;8.00;3.10;;;14.20;97.60;;;;;;4936426;29;20207;-84
2021/03/27 12:09:38;;;;;;;11.47;3.00;;;14.30;95.60;;;;;;4927743;29;20205;-85
2021/03/27 12:12:48;;;;;;;8.17;2.93;;;14.50;95.20;;;;;;4934383;29;20219;-84
2021/03/27 12:15:38;;;;;;;9.43;3.20;;;14.60;93.70;;;;;;4936280;29;20648;-85
2021/03/27 12:18:51;;;;;;;12.73;3.90;;;14.70;95.80;;;;;;4932308;29;20233;-84
2021/03/27 12:21:45;;;;;;;7.60;3.27;;;14.50;99.60;;;;;;4935846;29;20232;-84
2021/03/27 12:24:42;;;;;;;12.07;3.47;;;14.50;99.90;;;;;;4936491;29;20250;-86
2021/03/27 12:27:38;;;;;;;10.33;3.40;;;14.40;99.90;;;;;;4933650;29;20253;-84
2021/03/27 12:30:35;;;;;;;9.20;3.33;;;14.40;99.90;;;;;;4930423;29;20254;-86
2021/03/27 12:33:35;;;;;;;5.37;3.27;;;14.60;99.90;;;;;;4926565;29;20451;-85
2021/03/27 12:36:25;;;;;;;8.97;3.13;;;15.00;99.90;;;;;;4939360;29;20243;-83
2021/03/27 12:39:24;;;;;;;7.40;3.20;;;15.30;98.00;;;;;;4935107;29;20229;-84
2021/03/27 12:42:15;;;;;;;7.60;3.10;;;15.60;94.90;;;;;;4933769;29;20230;-83
2021/03/27 12:45:04;;;;;;;8.37;3.07;;;15.90;93.40;;;;;;4938853;29;20681;-83
2021/03/27 12:48:14;;;;;;;9.80;3.33;;;16.10;94.30;;;;;;4939204;29;20240;-84
2021/03/27 12:51:15;;;;;;;9.03;3.10;;;15.80;92.60;;;;;;4939546;29;20235;-84
2021/03/27 12:54:24;;;;;;;9.97;3.40;;;15.40;95.80;;;;;;4933238;29;20653;-82
2021/03/27 12:57:28;;;;;;;11.33;3.40;;;15.00;94.90;;;;;;4940814;29;20209;-82
2021/03/27 13:00:46;;;;;;;10.70;3.70;;;14.40;95.90;;;;;;4940003;29;20230;-83
2021/03/27 13:04:18;;;;;;;10.17;2.50;;;14.00;98.70;;;;;;4940130;29;20207;-82
2021/03/27 13:07:22;;;;;;;7.37;2.10;;;13.50;99.60;;;;;;4918395;29;20213;-83
2021/03/27 13:10:22;;;;;;;8.03;2.23;;;13.10;99.90;;;;;;4933248;29;20202;-82
2021/03/27 13:13:18;;;;;;;15.00;3.20;;;12.80;99.80;;;;;;4932087;29;20227;-79
2021/03/27 13:16:09;;;;;;;8.20;2.37;;;12.50;99.50;;;;;;4937250;29;20214;-82
2021/03/27 13:19:03;;;;;;;10.23;2.33;;;12.20;99.20;;;;;;4933456;29;20620;-82
2021/03/27 13:22:15;;;;;;;13.30;2.50;;;12.00;99.90;;;;;;4932972;29;20251;-81
2021/03/27 13:25:15;;;;;;;11.50;2.77;;;11.80;99.90;;;;;;4955755;29;20190;-80
2021/03/27 13:28:05;;;;;;;10.17;3.10;;;11.60;99.90;;;;;;4955888;29;20326;-80
2021/03/27 13:30:56;;;;;;;11.30;2.70;;;11.60;99.90;;;;;;4958044;29;20442;-80
2021/03/27 13:33:46;;;;;;;9.57;2.40;;;11.70;99.10;;;;;;4941475;28;20239;-82
2021/03/27 13:36:35;;;;;;;7.10;2.10;;;11.90;99.40;;;;;;4938142;29;20211;-81
2021/03/27 13:39:34;;;;;;;8.23;2.53;;;11.80;99.90;;;;;;4931683;29;20244;-81
2021/03/27 13:42:30;;;;;;;12.27;2.90;;;11.80;99.90;;;;;;4930697;29;20228;-80
2021/03/27 13:45:26;;;;;;;8.93;2.40;;;11.80;99.90;;;;;;4935767;29;20288;-82
2021/03/27 13:48:33;;;;;;;9.73;2.60;;;11.80;99.90;;;;;;4929624;29;20263;-83
2021/03/27 13:51:23;;;;;;;11.23;2.23;;;11.80;99.90;;;;;;4935135;29;20342;-83
2021/03/27 13:54:32;;;;;;;12.97;2.40;;;11.90;98.80;;;;;;4918812;29;20275;-83
2021/03/27 13:57:24;;;;;;;8.20;2.57;;;11.90;98.20;;;;;;4941043;29;20560;-83
2021/03/27 14:00:17;;;;;;;12.20;2.63;;;11.90;97.50;;;;;;4935285;29;20210;-84
2021/03/27 14:07:31;;;;;;;12.00;2.97;;;12.00;98.20;;;;;;4930532;29;20712;-84
2021/03/27 14:10:36;;;;;;;10.57;3.37;;;12.30;97.50;;;;;;4936920;29;20809;-84
2021/03/27 14:13:47;;;;;;;8.40;3.07;;;12.70;97.20;;;;;;4934910;29;20230;-84
2021/03/27 14:16:45;;;;;;;13.30;3.53;;;13.10;97.20;;;;;;4931657;29;20263;-85
2021/03/27 14:19:51;;;;;;;8.60;2.90;;;13.50;95.40;;;;;;4940838;29;20225;-84
2021/03/27 14:23:16;;;;;;;7.73;3.40;;;13.90;97.00;;;;;;4937485;29;20246;-84
2021/03/27 14:26:36;;;;;;;11.73;3.80;;;14.40;96.70;;;;;;4938344;29;20216;-86
2021/03/27 14:29:35;;;;;;;10.47;3.60;;;15.10;95.10;;;;;;4948919;29;20208;-85
2021/03/27 14:32:39;;;;;;;11.40;3.63;;;15.30;92.90;;;;;;4935116;29;20230;-84
2021/03/27 14:36:10;;;;;;;5.87;3.17;;;15.80;92.00;;;;;;4938337;29;20220;-81
2021/03/27 14:39:24;;;;;;;9.20;3.90;;;16.10;91.30;;;;;;4932800;29;20220;-85
2021/03/27 14:42:18;;;;;;;11.70;3.60;;;16.20;88.10;;;;;;4943666;29;20234;-83
2021/03/27 14:45:20;;;;;;;14.83;3.97;;;16.10;90.00;;;;;;4936920;29;20220;-83
2021/03/27 14:48:23;;;;;;;7.10;3.30;;;16.00;89.30;;;;;;4938387;29;20217;-83
2021/03/27 14:51:26;;;;;;;10.13;3.93;;;16.00;86.70;;;;;;4940631;29;20249;-84
2021/03/27 14:54:39;;;;;;;10.93;3.03;;;16.10;86.30;;;;;;4938486;29;20228;-83
2021/03/27 14:57:29;;;;;;;13.13;4.10;;;15.80;88.10;;;;;;4935755;29;20217;-81
2021/03/27 15:00:36;;;;;;;11.13;3.60;;;15.70;87.80;;;;;;4934526;29;20309;-84
2021/03/27 15:03:31;;;;;;;10.70;4.00;;;15.40;90.80;;;;;;4939938;29;20218;-83
2021/03/27 15:06:37;;;;;;;11.20;3.30;;;15.20;88.90;;;;;;4938460;29;20241;-84
2021/03/27 15:13:39;;;;;;;11.27;2.93;;;15.20;86.10;;;;;;4859533;29;20246;-85
2021/03/27 15:16:35;;;;;;;10.33;3.17;;;15.00;87.20;;;;;;4912615;29;20227;-84
2021/03/27 15:20:02;;;;;;;8.90;3.23;;;14.90;86.30;;;;;;4935369;29;20321;-85
2021/03/27 15:22:53;;;;;;;11.30;2.70;;;14.70;88.40;;;;;;4927768;29;20239;-86
2021/03/27 15:29:02;;;;;;;10.90;3.77;;;14.30;88.50;;;;;;4936404;29;20310;-81
2021/03/27 15:31:53;;;;;;;10.30;3.40;;;14.10;89.00;;;;;;4941661;29;20319;-82
2021/03/27 15:34:43;;;;;;;15.00;3.57;;;13.90;90.10;;;;;;4941154;29;20203;-83
2021/03/27 15:37:36;;;;;;;11.53;3.53;;;13.90;91.60;;;;;;4927148;29;20765;-85
2021/03/27 15:40:25;;;;;;;10.20;3.50;;;13.80;91.80;;;;;;4944376;29;20314;-85
2021/03/27 15:43:20;;;;;;;12.83;3.67;;;13.80;90.80;;;;;;4943712;29;20199;-82
2021/03/27 15:46:11;;;;;;;7.67;3.30;;;13.90;90.80;;;;;;4937434;29;20220;-83
2021/03/27 15:49:15;;;;;;;11.10;3.50;;;13.90;90.80;;;;;;4931921;29;20271;-84
2021/03/27 15:52:10;;;;;;;11.90;3.50;;;13.90;88.60;;;;;;4930701;29;20893;-84
2021/03/27 15:55:10;;;;;;;10.30;3.33;;;13.90;86.60;;;;;;4930252;29;20215;-85